Dobrodošli na spletni strani vremenske postaje Senovo. Vse informacije so informativnega značaja, saj vremenska postaja ni del državne mreže meteoroloških postaj. AKTUALNIH OBVESTIL NI.


Posebna pozornost v zvezi z vremenskimi dogajanji ni potrebna.    Posebna pozornost v zvezi z vremenskimi dogajanji ni potrebna.

Pogled proti Armezu več informacij Pogled proti Armezu


Bohor več informacij Bohor


Radar strel več informacij blitzortung!


Radar padavin več informacij rain snow radar


Obiščite še:

Template documentation
and downloads

And another site



Weather Underground, zgodovina - Tekstovno

Dnevni povzetek za Marc 19, 2017 Enote:  Angleško    Metrično   Obe
« Predhodni Dan
Naslednji Dan »
Dnevni Tedenski Mesečni Letni Po meri
  Višja: Nižja: Povprečje:
Temperatura: TemperatureC °F 5.8 °F 11.1 °F
Točka rosišča: DewpointC °F 2.4 °F 5.2 °F
Vlažnost: Humidity % 50 % 68 %
Hitrost vetra: WindSpeedKMH mph 0.0 mph 1.7 mph
Sunki vetra: WindSpeedGustKMH mph - -
Veter:- - SSW
Zračni tlak: PressurehPa in 1006.0 in -
Padavine: 0.0 in    
Historical Graphs
 
 
Tabelarni podarki za Marc 19, 2017
Čas Temperatura Točka rosišča Zračni tlak Veter Hitrost vetra Sunki vetra Vlažnost Intenziteta padavin (urna)
TemperatureC °F DewpointC °F PressurehPa in Calm     Humidity % HourlyPrecipMM in
00:01 12.8 °F 4.5 °F 1006.0 in WSW 6.0 mph 13.7 mph 57 % 0.0 in
00:06 12.8 °F 4.5 °F 1006.0 in WSW 5.3 mph 11.9 mph 57 % 0.0 in
00:11 12.7 °F 4.2 °F 1006.0 in WSW 5.5 mph 10.5 mph 56 % 0.0 in
00:16 12.6 °F 4.1 °F 1006.0 in WSW 4.8 mph 9.0 mph 56 % 0.0 in
00:21 12.5 °F 4.2 °F 1006.0 in WSW 4.7 mph 9.0 mph 57 % 0.0 in
00:26 12.5 °F 4.2 °F 1006.0 in SW 4.8 mph 8.7 mph 57 % 0.0 in
00:31 12.4 °F 4.1 °F 1006.0 in SW 4.7 mph 6.9 mph 57 % 0.0 in
00:36 12.3 °F 4.0 °F 1007.0 in SW 3.2 mph 5.8 mph 57 % 0.0 in
00:41 12.1 °F 3.8 °F 1007.0 in SSW 1.6 mph 5.0 mph 57 % 0.0 in
00:46 12.0 °F 4.0 °F 1007.0 in SSW 1.0 mph 4.0 mph 58 % 0.0 in
00:51 11.8 °F 3.8 °F 1007.0 in SSW 0.5 mph 4.3 mph 58 % 0.0 in
00:56 11.4 °F 3.7 °F 1007.0 in SW 0.5 mph 4.3 mph 59 % 0.0 in
01:01 11.1 °F 3.4 °F 1007.0 in West 0.3 mph 3.2 mph 59 % 0.0 in
01:06 10.8 °F 3.6 °F 1007.0 in Calm     61 % 0.0 in
01:11 10.5 °F 3.3 °F 1007.0 in Calm     61 % 0.0 in
01:16 10.1 °F 3.2 °F 1007.0 in Calm   2.1 mph 62 % 0.0 in
01:21 9.9 °F 3.4 °F 1007.0 in NNW 1.1 mph 4.3 mph 64 % 0.0 in
01:26 9.7 °F 3.2 °F 1007.0 in NNW 1.1 mph 4.3 mph 64 % 0.0 in
01:32 9.5 °F 3.2 °F 1007.0 in NW 1.6 mph 5.0 mph 65 % 0.0 in
01:37 9.3 °F 3.1 °F 1007.0 in NW 1.9 mph 5.0 mph 65 % 0.0 in
01:42 9.2 °F 3.2 °F 1007.0 in West 0.8 mph 4.0 mph 66 % 0.0 in
01:47 9.0 °F 3.2 °F 1007.0 in WSW 1.6 mph 5.0 mph 67 % 0.0 in
01:52 8.9 °F 3.3 °F 1007.0 in WSW 1.1 mph 5.0 mph 68 % 0.0 in
01:57 8.8 °F 3.2 °F 1007.0 in WNW 0.3 mph 4.3 mph 68 % 0.0 in
02:02 8.7 °F 3.3 °F 1007.0 in WNW 0.3 mph 4.3 mph 69 % 0.0 in
02:07 8.6 °F 3.2 °F 1007.0 in WNW 0.2 mph 3.5 mph 69 % 0.0 in
02:12 8.5 °F 3.3 °F 1007.0 in NW 0.8 mph 3.5 mph 70 % 0.0 in
02:17 8.5 °F 3.3 °F 1007.0 in NW 0.8 mph 3.5 mph 70 % 0.0 in
02:22 8.3 °F 3.3 °F 1007.0 in SSW 0.2 mph 2.6 mph 71 % 0.0 in
02:27 8.3 °F 3.2 °F 1007.0 in Calm   5.8 mph 70 % 0.0 in
02:32 8.1 °F 3.2 °F 1007.0 in WNW 1.4 mph 5.8 mph 71 % 0.0 in
02:37 8.1 °F 3.3 °F 1006.0 in NW 3.1 mph 7.9 mph 72 % 0.0 in
02:42 8.2 °F 3.4 °F 1006.0 in West 3.5 mph 7.9 mph 72 % 0.0 in
02:47 8.3 °F 3.7 °F 1006.0 in West 3.1 mph 6.4 mph 73 % 0.0 in
02:57 8.4 °F 3.8 °F 1007.0 in NW 1.6 mph 4.7 mph 73 % 0.0 in
03:02 8.5 °F 3.9 °F 1007.0 in West 1.1 mph 5.5 mph 73 % 0.0 in
03:07 8.5 °F 3.9 °F 1007.0 in SW 0.8 mph 5.5 mph 73 % 0.0 in
03:12 8.4 °F 3.8 °F 1007.0 in WSW 0.8 mph 4.0 mph 73 % 0.0 in
03:17 8.3 °F 3.7 °F 1007.0 in West 1.0 mph 3.2 mph 73 % 0.0 in
03:22 8.2 °F 3.7 °F 1006.0 in WNW 0.6 mph 3.2 mph 73 % 0.0 in
03:27 8.1 °F 3.6 °F 1006.0 in NW 1.1 mph 5.5 mph 73 % 0.0 in
03:32 8.0 °F 3.4 °F 1006.0 in WNW 1.3 mph 5.5 mph 73 % 0.0 in
03:37 8.1 °F 3.6 °F 1007.0 in West 1.3 mph 5.5 mph 73 % 0.0 in
03:42 8.0 °F 3.7 °F 1007.0 in West 2.4 mph 7.9 mph 74 % 0.0 in
03:47 8.2 °F 4.1 °F 1007.0 in SW 5.6 mph 10.1 mph 75 % 0.0 in
03:57 8.4 °F 4.1 °F 1007.0 in West 1.6 mph 6.4 mph 74 % 0.0 in
04:02 8.4 °F 4.1 °F 1007.0 in WNW 0.3 mph 4.0 mph 74 % 0.0 in
04:07 8.4 °F 4.1 °F 1008.0 in Calm     74 % 0.0 in
04:12 8.3 °F 3.9 °F 1008.0 in Calm   2.1 mph 74 % 0.0 in
04:17 8.3 °F 3.9 °F 1008.0 in Calm   2.1 mph 74 % 0.0 in
04:22 8.2 °F 3.8 °F 1007.0 in WNW 0.2 mph 5.8 mph 74 % 0.0 in
04:27 8.1 °F 3.7 °F 1007.0 in WNW 0.5 mph 5.8 mph 74 % 0.0 in
04:32 8.0 °F 3.7 °F 1007.0 in WNW 0.3 mph 3.5 mph 74 % 0.0 in
04:37 7.8 °F 3.4 °F 1007.0 in Calm     74 % 0.0 in
04:42 7.6 °F 3.4 °F 1007.0 in Calm   1.8 mph 75 % 0.0 in
04:47 7.6 °F 3.4 °F 1007.0 in Calm   1.8 mph 75 % 0.0 in
04:52 7.5 °F 3.3 °F 1008.0 in Calm     75 % 0.0 in
04:57 7.4 °F 3.3 °F 1008.0 in SSW 0.3 mph 3.2 mph 75 % 0.0 in
05:02 7.1 °F 2.9 °F 1008.0 in SSW 0.5 mph 4.3 mph 75 % 0.0 in
05:08 7.0 °F 3.1 °F 1009.0 in SW 0.3 mph 4.3 mph 76 % 0.0 in
05:13 6.9 °F 2.9 °F 1009.0 in NNW 0.2 mph 4.3 mph 76 % 0.0 in
05:18 6.7 °F 2.8 °F 1009.0 in NNW 0.6 mph 6.1 mph 76 % 0.0 in
05:23 6.5 °F 2.8 °F 1009.0 in NNW 1.3 mph 6.1 mph 77 % 0.0 in
05:28 6.5 °F 2.8 °F 1009.0 in NNW 0.5 mph 2.1 mph 77 % 0.0 in
05:33 6.4 °F 2.7 °F 1009.0 in Calm     77 % 0.0 in
05:38 6.3 °F 2.6 °F 1008.0 in Calm   4.3 mph 77 % 0.0 in
05:43 6.2 °F 2.4 °F 1008.0 in WSW 0.5 mph 4.3 mph 77 % 0.0 in
05:48 6.1 °F 2.6 °F 1008.0 in WSW 0.5 mph 4.3 mph 78 % 0.0 in
05:53 6.0 °F 2.4 °F 1008.0 in Calm     78 % 0.0 in
05:58 5.9 °F 2.6 °F 1008.0 in Calm     79 % 0.0 in
06:03 5.9 °F 2.6 °F 1008.0 in Calm     79 % 0.0 in
06:04 5.9 °F 2.6 °F 1009.0 in Calm     79 % 0.0 in
06:09 5.8 °F 2.6 °F 1009.0 in Calm     80 % 0.0 in
06:14 5.8 °F 2.6 °F 1009.0 in SSW 0.5 mph 4.0 mph 80 % 0.0 in
06:19 5.8 °F 2.6 °F 1009.0 in West 1.4 mph 4.3 mph 80 % 0.0 in
06:24 5.8 °F 2.8 °F 1009.0 in NW 1.4 mph 4.3 mph 81 % 0.0 in
06:29 5.8 °F 2.8 °F 1009.0 in West 0.5 mph 2.1 mph 81 % 0.0 in
06:34 5.9 °F 3.1 °F 1009.0 in West 0.6 mph 3.5 mph 82 % 0.0 in
06:39 6.0 °F 3.3 °F 1009.0 in West 0.5 mph 3.5 mph 83 % 0.0 in
06:44 6.0 °F 3.3 °F 1009.0 in Calm     83 % 0.0 in
06:49 6.1 °F 3.3 °F 1010.0 in Calm   2.1 mph 82 % 0.0 in
06:54 6.3 °F 3.6 °F 1010.0 in NW 0.6 mph 4.3 mph 83 % 0.0 in
06:59 6.4 °F 3.7 °F 1010.0 in SSW 1.3 mph 4.7 mph 83 % 0.0 in
07:04 6.6 °F 3.9 °F 1010.0 in SSE 0.8 mph 4.7 mph 83 % 0.0 in
07:09 6.8 °F 4.1 °F 1010.0 in North 0.6 mph 2.6 mph 83 % 0.0 in
07:10 6.8 °F 4.3 °F 1010.0 in North 0.6 mph 2.6 mph 84 % 0.0 in
07:15 7.0 °F 4.5 °F 1010.0 in West 1.4 mph 6.4 mph 84 % 0.0 in
07:20 7.3 °F 4.8 °F 1010.0 in NW 1.9 mph 6.4 mph 84 % 0.0 in
07:25 7.5 °F 4.9 °F 1010.0 in NNE 1.3 mph 4.3 mph 84 % 0.0 in
07:30 7.8 °F 5.3 °F 1010.0 in NNE 1.0 mph 4.0 mph 84 % 0.0 in
07:35 8.0 °F 5.4 °F 1011.1 in North 0.8 mph 3.5 mph 84 % 0.0 in
07:40 8.2 °F 5.7 °F 1011.1 in NNW 0.5 mph 3.5 mph 84 % 0.0 in
07:45 8.5 °F 5.9 °F 1011.1 in SE 0.6 mph 4.7 mph 84 % 0.0 in
07:50 8.7 °F 6.0 °F 1011.1 in SE 0.8 mph 4.7 mph 83 % 0.0 in
07:55 8.9 °F 6.2 °F 1011.1 in Calm     83 % 0.0 in
08:00 9.1 °F 6.2 °F 1011.1 in Calm     82 % 0.0 in
08:05 9.3 °F 6.2 °F 1009.0 in SSE 0.8 mph 4.0 mph 81 % 0.0 in
08:10 9.4 °F 6.3 °F 1009.0 in SSE 0.8 mph 4.0 mph 81 % 0.0 in
08:15 9.7 °F 6.4 °F 1009.0 in Calm     80 % 0.0 in
08:20 9.9 °F 6.4 °F 1010.0 in Calm     79 % 0.0 in
08:25 10.1 °F 6.4 °F 1010.0 in Calm     78 % 0.0 in
08:30 10.4 °F 6.7 °F 1010.0 in Calm   4.3 mph 78 % 0.0 in
08:35 10.7 °F 6.8 °F 1010.0 in SSW 1.3 mph 5.5 mph 77 % 0.0 in
08:40 10.8 °F 6.7 °F 1010.0 in South 1.9 mph 5.5 mph 76 % 0.0 in
08:46 10.9 °F 6.7 °F 1010.0 in South 1.0 mph 4.7 mph 75 % 0.0 in
08:51 11.1 °F 6.6 °F 1011.1 in SSE 0.8 mph 4.7 mph 74 % 0.0 in
08:56 11.4 °F 6.9 °F 1011.1 in SSE 0.8 mph 3.2 mph 74 % 0.0 in
09:01 11.6 °F 6.9 °F 1011.1 in SSE 1.6 mph 7.9 mph 73 % 0.0 in
09:06 11.7 °F 6.2 °F 1011.1 in ESE 4.0 mph 7.9 mph 69 % 0.0 in
09:11 11.9 °F 6.8 °F 1011.1 in ESE 5.0 mph 7.9 mph 71 % 0.0 in
09:16 12.0 °F 6.7 °F 1011.1 in SSE 3.5 mph 7.9 mph 70 % 0.0 in
09:21 12.2 °F 6.7 °F 1011.1 in South 1.8 mph 5.8 mph 69 % 0.0 in
09:26 12.3 °F 6.6 °F 1011.1 in ESE 2.3 mph 6.1 mph 68 % 0.0 in
09:31 12.4 °F 6.7 °F 1011.1 in East 2.7 mph 6.1 mph 68 % 0.0 in
09:36 12.5 °F 6.6 °F 1011.1 in ESE 3.4 mph 14.0 mph 67 % 0.0 in
09:41 12.5 °F 6.1 °F 1011.1 in SE 5.0 mph 14.0 mph 65 % 0.0 in
09:46 12.6 °F 5.9 °F 1011.1 in SE 6.4 mph 14.0 mph 64 % 0.0 in
09:51 12.7 °F 6.1 °F 1011.1 in SSE 6.3 mph 14.0 mph 64 % 0.0 in
09:56 12.7 °F 5.8 °F 1011.1 in SSE 5.6 mph 10.1 mph 63 % 0.0 in
10:01 12.7 °F 5.8 °F 1011.1 in SSE 6.0 mph 10.5 mph 63 % 0.0 in
10:06 12.8 °F 5.7 °F 1012.1 in SSE 5.5 mph 10.5 mph 62 % 0.0 in
10:11 12.8 °F 5.7 °F 1012.1 in SSE 5.0 mph 8.7 mph 62 % 0.0 in
10:16 12.8 °F 5.7 °F 1012.1 in SE 4.0 mph 9.3 mph 62 % 0.0 in
10:21 12.8 °F 5.7 °F 1012.1 in SE 3.9 mph 9.3 mph 62 % 0.0 in
10:26 12.7 °F 5.4 °F 1012.1 in SSE 4.2 mph 9.0 mph 61 % 0.0 in
10:31 12.7 °F 5.6 °F 1012.1 in SSE 5.0 mph 9.0 mph 62 % 0.0 in
10:36 12.8 °F 5.7 °F 1012.1 in SSE 5.0 mph 8.7 mph 62 % 0.0 in
10:41 12.8 °F 5.7 °F 1012.1 in SSE 4.7 mph 9.0 mph 62 % 0.0 in
10:46 12.9 °F 5.6 °F 1012.1 in SSE 4.2 mph 9.0 mph 61 % 0.0 in
10:51 13.0 °F 5.7 °F 1012.1 in SE 4.0 mph 9.0 mph 61 % 0.0 in
10:56 13.0 °F 5.7 °F 1012.1 in SE 5.1 mph 9.0 mph 61 % 0.0 in
11:01 13.0 °F 5.7 °F 1012.1 in SE 5.1 mph 7.6 mph 61 % 0.0 in
11:06 13.0 °F 5.4 °F 1012.1 in SSE 5.0 mph 10.5 mph 60 % 0.0 in
11:07 13.0 °F 5.4 °F 1012.1 in SSE 5.0 mph 10.5 mph 60 % 0.0 in
11:12 13.0 °F 5.4 °F 1012.1 in SE 4.2 mph 10.5 mph 60 % 0.0 in
11:17 13.0 °F 5.2 °F 1012.1 in ESE 3.5 mph 6.9 mph 59 % 0.0 in
11:22 12.9 °F 5.1 °F 1012.1 in ESE 3.9 mph 10.1 mph 59 % 0.0 in
11:27 13.0 °F 4.9 °F 1012.1 in SSE 4.3 mph 10.1 mph 58 % 0.0 in
11:32 13.1 °F 5.0 °F 1012.1 in South 3.5 mph 6.4 mph 58 % 0.0 in
11:37 13.3 °F 4.9 °F 1012.1 in SE 3.4 mph 7.9 mph 57 % 0.0 in
11:42 13.3 °F 4.7 °F 1012.1 in ESE 3.5 mph 7.9 mph 56 % 0.0 in
11:43 13.3 °F 4.9 °F 1012.1 in ESE 3.7 mph 7.9 mph 57 % 0.0 in
11:48 13.4 °F 4.8 °F 1012.1 in ESE 2.1 mph 5.0 mph 56 % 0.0 in
11:53 13.5 °F 5.2 °F 1013.1 in SW 2.7 mph 9.0 mph 57 % 0.0 in
11:58 13.5 °F 4.9 °F 1013.1 in WSW 4.8 mph 9.0 mph 56 % 0.0 in
12:03 13.6 °F 5.2 °F 1013.1 in SW 4.0 mph 7.9 mph 57 % 0.0 in
12:08 13.7 °F 5.3 °F 1012.1 in South 2.7 mph 5.8 mph 57 % 0.0 in
12:13 13.7 °F 5.1 °F 1012.1 in SW 2.6 mph 5.8 mph 56 % 0.0 in
12:18 13.6 °F 5.0 °F 1012.1 in SW 1.1 mph 5.0 mph 56 % 0.0 in
12:23 13.7 °F 5.1 °F 1011.1 in South 1.9 mph 5.0 mph 56 % 0.0 in
12:28 14.1 °F 5.4 °F 1011.1 in South 2.9 mph 5.5 mph 56 % 0.0 in
12:33 14.3 °F 5.6 °F 1011.1 in SE 2.3 mph 10.1 mph 56 % 0.0 in
12:38 14.7 °F 6.0 °F 1012.1 in ESE 4.7 mph 10.5 mph 56 % 0.0 in
12:43 15.0 °F 6.0 °F 1012.1 in ESE 6.1 mph 10.5 mph 55 % 0.0 in
12:48 15.3 °F 6.3 °F 1012.1 in East 5.0 mph 7.9 mph 55 % 0.0 in
12:53 15.6 °F 6.6 °F 1010.0 in SE 4.5 mph 7.9 mph 55 % 0.0 in
12:58 15.9 °F 6.6 °F 1010.0 in SSE 3.7 mph 6.9 mph 54 % 0.0 in
13:03 16.2 °F 6.9 °F 1010.0 in SSE 3.7 mph 9.0 mph 54 % 0.0 in
13:08 16.4 °F 7.1 °F 1011.1 in ESE 4.5 mph 9.7 mph 54 % 0.0 in
13:13 16.6 °F 7.0 °F 1011.1 in ESE 5.5 mph 9.7 mph 53 % 0.0 in
13:18 16.8 °F 7.2 °F 1011.1 in ESE 6.4 mph 14.0 mph 53 % 0.0 in
13:23 17.0 °F 7.1 °F 1010.0 in ESE 7.1 mph 14.0 mph 52 % 0.0 in
13:28 17.2 °F 7.3 °F 1010.0 in SE 6.3 mph 9.3 mph 52 % 0.0 in
13:33 17.1 °F 6.9 °F 1010.0 in SE 4.3 mph 7.6 mph 51 % 0.0 in
13:38 17.2 °F 6.9 °F 1009.0 in SSE 2.7 mph 7.6 mph 51 % 0.0 in
13:43 17.3 °F 7.1 °F 1009.0 in SE 2.1 mph 6.9 mph 51 % 0.0 in
13:49 17.1 °F 6.6 °F 1009.0 in ESE 3.5 mph 12.2 mph 50 % 0.0 in
13:54 17.0 °F 6.5 °F 1010.0 in ESE 5.0 mph 12.2 mph 50 % 0.0 in
13:59 17.2 °F 6.9 °F 1010.0 in SE 2.3 mph 10.1 mph 51 % 0.0 in
14:04 17.3 °F 7.1 °F 1010.0 in SE 0.8 mph 6.1 mph 51 % 0.0 in
14:09 17.2 °F 6.7 °F 1010.0 in SE 2.3 mph 6.9 mph 50 % 0.0 in
14:14 17.1 °F 6.6 °F 1010.0 in ESE 4.2 mph 9.7 mph 50 % 0.0 in
14:19 17.0 °F 6.5 °F 1010.0 in ESE 6.1 mph 13.7 mph 50 % 0.0 in
14:24 17.0 °F 6.5 °F 1010.0 in SE 4.8 mph 11.9 mph 50 % 0.0 in
14:29 16.8 °F 6.3 °F 1010.0 in SE 2.3 mph 10.1 mph 50 % 0.0 in
14:34 16.9 °F 6.7 °F 1010.0 in SE 2.9 mph 10.1 mph 51 % 0.0 in
14:39 16.8 °F 6.6 °F 1010.0 in SSE 4.0 mph 10.1 mph 51 % 0.0 in
14:44 16.7 °F 6.5 °F 1010.0 in SSW 2.7 mph 6.9 mph 51 % 0.0 in
14:49 16.6 °F 6.4 °F 1010.0 in SE 3.7 mph 7.9 mph 51 % 0.0 in
14:54 16.5 °F 6.3 °F 1010.0 in SE 3.9 mph 7.9 mph 51 % 0.0 in
14:59 16.5 °F 6.3 °F 1010.0 in SE 2.3 mph 6.1 mph 51 % 0.0 in
15:04 16.5 °F 6.3 °F 1010.0 in SSE 1.9 mph 7.6 mph 51 % 0.0 in
15:09 16.3 °F 6.1 °F 1010.0 in SW 3.4 mph 10.1 mph 51 % 0.0 in
15:14 16.1 °F 5.9 °F 1010.0 in WSW 4.8 mph 10.1 mph 51 % 0.0 in
15:19 16.0 °F 5.8 °F 1009.0 in WSW 4.0 mph 8.7 mph 51 % 0.0 in
15:24 15.9 °F 6.1 °F 1009.0 in SW 2.7 mph 6.9 mph 52 % 0.0 in
15:25 15.9 °F 6.1 °F 1009.0 in SW 2.9 mph 6.9 mph 52 % 0.0 in
15:30 15.8 °F 5.9 °F 1009.0 in SSW 2.7 mph 5.8 mph 52 % 0.0 in
15:35 15.7 °F 5.9 °F 1009.0 in South 2.3 mph 5.8 mph 52 % 0.0 in
15:40 15.6 °F 5.8 °F 1009.0 in SW 3.1 mph 9.0 mph 52 % 0.0 in
15:45 15.6 °F 5.8 °F 1009.0 in SSW 4.0 mph 9.0 mph 52 % 0.0 in
15:50 15.6 °F 5.8 °F 1010.0 in South 3.1 mph 6.9 mph 52 % 0.0 in
15:55 15.6 °F 5.8 °F 1010.0 in SW 3.1 mph 5.8 mph 52 % 0.0 in
16:00 15.6 °F 5.8 °F 1010.0 in SW 2.1 mph 5.8 mph 52 % 0.0 in
16:05 15.5 °F 5.9 °F 1010.0 in SSE 0.8 mph 5.0 mph 53 % 0.0 in
16:10 15.5 °F 5.9 °F 1010.0 in SSW 2.1 mph 6.1 mph 53 % 0.0 in
16:16 15.4 °F 5.9 °F 1010.0 in SW 2.6 mph 6.1 mph 53 % 0.0 in
16:21 15.4 °F 5.9 °F 1009.0 in SW 3.1 mph 8.7 mph 53 % 0.0 in
16:26 15.3 °F 6.1 °F 1009.0 in SSW 3.9 mph 8.7 mph 54 % 0.0 in
16:31 15.2 °F 5.9 °F 1009.0 in SSW 4.7 mph 8.7 mph 54 % 0.0 in
16:36 15.2 °F 5.9 °F 1010.0 in SSW 4.8 mph 8.7 mph 54 % 0.0 in
16:41 15.1 °F 6.1 °F 1010.0 in SSW 3.7 mph 6.9 mph 55 % 0.0 in
16:46 15.1 °F 6.1 °F 1010.0 in SSW 2.9 mph 6.9 mph 55 % 0.0 in
16:51 15.0 °F 6.0 °F 1010.0 in SSW 2.1 mph 4.7 mph 55 % 0.0 in
16:56 14.9 °F 6.2 °F 1010.0 in SSW 1.0 mph 4.3 mph 56 % 0.0 in
17:01 14.9 °F 6.4 °F 1010.0 in South 0.2 mph 2.1 mph 57 % 0.0 in
17:06 14.7 °F 6.3 °F 1010.0 in Calm     57 % 0.0 in
17:11 14.6 °F 6.4 °F 1010.0 in SSE 0.2 mph 2.6 mph 58 % 0.0 in
17:16 14.5 °F 6.3 °F 1010.0 in SSE 0.3 mph 4.0 mph 58 % 0.0 in
17:21 14.4 °F 6.2 °F 1010.0 in South 0.3 mph 4.0 mph 58 % 0.0 in
17:26 14.3 °F 6.4 °F 1010.0 in Calm   4.0 mph 59 % 0.0 in
17:31 14.2 °F 6.3 °F 1010.0 in WNW 0.3 mph 4.0 mph 59 % 0.0 in
17:36 14.0 °F 6.3 °F 1010.0 in WNW 0.5 mph 3.2 mph 60 % 0.0 in
17:41 13.8 °F 6.4 °F 1010.0 in North 0.2 mph   61 % 0.0 in
17:46 13.7 °F 6.3 °F 1010.0 in Calm     61 % 0.0 in
17:51 13.4 °F 6.3 °F 1010.0 in Calm   2.6 mph 62 % 0.0 in
17:56 13.2 °F 6.1 °F 1010.0 in West 0.2 mph 2.6 mph 62 % 0.0 in
18:01 12.9 °F 6.0 °F 1010.0 in North 0.2 mph   63 % 0.0 in
18:06 12.7 °F 6.1 °F 1010.0 in Calm   1.4 mph 64 % 0.0 in
18:11 12.5 °F 5.9 °F 1010.0 in SW 0.2 mph 3.2 mph 64 % 0.0 in
18:16 12.2 °F 5.8 °F 1010.0 in SW 0.2 mph 3.2 mph 65 % 0.0 in
18:21 12.0 °F 5.6 °F 1010.0 in Calm     65 % 0.0 in
18:26 11.8 °F 5.7 °F 1010.0 in Calm     66 % 0.0 in
18:31 11.5 °F 5.4 °F 1010.0 in Calm     66 % 0.0 in
18:36 11.3 °F 5.4 °F 1010.0 in Calm     67 % 0.0 in
18:41 11.1 °F 5.4 °F 1010.0 in Calm     68 % 0.0 in
18:46 11.0 °F 5.3 °F 1010.0 in Calm   1.4 mph 68 % 0.0 in
18:51 10.7 °F 5.2 °F 1010.0 in WSW 0.3 mph 3.5 mph 69 % 0.0 in
18:57 10.6 °F 5.3 °F 1010.0 in West 0.3 mph 3.5 mph 70 % 0.0 in
19:02 10.3 °F 4.8 °F 1010.0 in Calm     69 % 0.0 in
19:07 10.1 °F 5.1 °F 1010.0 in Calm     71 % 0.0 in
19:12 10.0 °F 5.0 °F 1010.0 in Calm     71 % 0.0 in
19:17 10.0 °F 5.2 °F 1010.0 in Calm     72 % 0.0 in
19:22 9.8 °F 5.2 °F 1010.0 in Calm     73 % 0.0 in
19:27 9.7 °F 5.1 °F 1010.0 in Calm     73 % 0.0 in
19:32 9.6 °F 5.0 °F 1010.0 in Calm     73 % 0.0 in
19:37 9.5 °F 5.1 °F 1010.0 in Calm     74 % 0.0 in
19:42 9.5 °F 5.1 °F 1010.0 in Calm     74 % 0.0 in
19:47 9.4 °F 5.2 °F 1010.0 in Calm     75 % 0.0 in
19:52 9.4 °F 5.2 °F 1009.0 in Calm     75 % 0.0 in
19:57 9.3 °F 5.1 °F 1009.0 in Calm     75 % 0.0 in
20:02 9.3 °F 5.3 °F 1009.0 in Calm     76 % 0.0 in
20:07 9.3 °F 5.3 °F 1010.0 in Calm     76 % 0.0 in
20:12 9.3 °F 5.3 °F 1010.0 in Calm     76 % 0.0 in
20:17 9.2 °F 5.2 °F 1010.0 in Calm     76 % 0.0 in
20:22 9.2 °F 5.4 °F 1009.0 in Calm     77 % 0.0 in
20:27 9.2 °F 5.2 °F 1009.0 in Calm     76 % 0.0 in
20:32 9.2 °F 5.4 °F 1009.0 in Calm     77 % 0.0 in
20:37 9.2 °F 5.4 °F 1010.0 in Calm     77 % 0.0 in
20:42 9.2 °F 5.6 °F 1010.0 in Calm     78 % 0.0 in
20:47 9.2 °F 5.6 °F 1010.0 in Calm     78 % 0.0 in
20:52 9.1 °F 5.4 °F 1010.0 in Calm     78 % 0.0 in
20:57 9.1 °F 5.4 °F 1010.0 in Calm     78 % 0.0 in
21:02 9.1 °F 5.7 °F 1010.0 in Calm     79 % 0.0 in
21:07 9.0 °F 5.6 °F 1010.0 in Calm     79 % 0.0 in
21:12 9.0 °F 5.6 °F 1010.0 in Calm     79 % 0.0 in
21:17 9.0 °F 5.6 °F 1010.0 in Calm     79 % 0.0 in
21:22 9.0 °F 5.6 °F 1009.0 in Calm     79 % 0.0 in
21:27 9.0 °F 5.7 °F 1009.0 in Calm     80 % 0.0 in
21:32 9.0 °F 5.7 °F 1009.0 in Calm     80 % 0.0 in
21:37 9.1 °F 6.0 °F 1009.0 in Calm     81 % 0.0 in
21:42 9.0 °F 5.9 °F 1009.0 in Calm     81 % 0.0 in
21:47 9.1 °F 6.0 °F 1009.0 in Calm     81 % 0.0 in
21:52 9.1 °F 6.0 °F 1009.0 in Calm     81 % 0.0 in
21:58 9.1 °F 6.0 °F 1009.0 in Calm     81 % 0.0 in
22:03 9.0 °F 5.9 °F 1009.0 in Calm     81 % 0.0 in
22:07 9.0 °F 5.9 °F 1010.0 in Calm     81 % 0.0 in
22:13 9.0 °F 6.1 °F 1010.0 in Calm     82 % 0.0 in
22:17 8.9 °F 6.0 °F 1010.0 in Calm     82 % 0.0 in
22:23 9.0 °F 6.1 °F 1009.0 in Calm     82 % 0.0 in
22:27 8.9 °F 6.2 °F 1009.0 in Calm     83 % 0.0 in
22:33 8.9 °F 6.2 °F 1009.0 in Calm     83 % 0.0 in
22:38 8.9 °F 6.2 °F 1009.0 in Calm     83 % 0.0 in
22:43 8.9 °F 6.2 °F 1009.0 in Calm     83 % 0.0 in
22:48 8.9 °F 6.2 °F 1009.0 in Calm     83 % 0.0 in
22:53 8.9 °F 6.2 °F 1009.0 in Calm     83 % 0.0 in
22:58 8.9 °F 6.3 °F 1009.0 in Calm     84 % 0.0 in
23:03 8.9 °F 6.3 °F 1009.0 in Calm     84 % 0.0 in
23:08 8.9 °F 6.3 °F 1009.0 in Calm     84 % 0.0 in
23:13 8.9 °F 6.3 °F 1009.0 in Calm     84 % 0.0 in
23:18 8.9 °F 6.5 °F 1009.0 in Calm     85 % 0.0 in
23:23 8.9 °F 6.5 °F 1010.0 in Calm     85 % 0.0 in
23:28 8.9 °F 6.5 °F 1010.0 in Calm     85 % 0.0 in
23:33 8.9 °F 6.5 °F 1010.0 in Calm     85 % 0.0 in
23:38 8.9 °F 6.5 °F 1010.0 in Calm     85 % 0.0 in
23:43 9.0 °F 6.6 °F 1010.0 in Calm     85 % 0.0 in
23:48 9.0 °F 6.6 °F 1010.0 in Calm     85 % 0.0 in
23:53 9.0 °F 6.6 °F 1010.0 in Calm     85 % 0.0 in
23:58 9.1 °F 6.7 °F 1010.0 in SSW 0.8 mph 5.8 mph 85 % 0.0 in
Vremenska postaja Senovo
Podatki zbrani iz Weather Underground - 3 mb

Script developed by  Jim McMurry - jmcmurry@mwt.net Adapted for the template by  Wim van der Kuil - Leuven-Template.eu

Vremenski podatki so objavljeni na:

European Weather Network

WeatherCloud

Weather Underground

AWEKAS

HAMweather, WeatherForYou, PWS Weather

MapView

Geostik

Slovenia weather network

Oprema, ki se uporablja:

Vremenski program
Cumulus

Vremenski server
Asus

Cumulus

Asus